sensor_id;sensor_type;location;lat;lon;timestamp;temperature;humidity
68026;SHT31;54819;48.030;14.710;2023-05-23T00:01:23;15.63;76.69
68026;SHT31;54819;48.030;14.710;2023-05-23T00:03:50;15.56;76.99
68026;SHT31;54819;48.030;14.710;2023-05-23T00:06:19;15.50;77.19
68026;SHT31;54819;48.030;14.710;2023-05-23T00:08:49;15.45;77.30
68026;SHT31;54819;48.030;14.710;2023-05-23T00:11:15;15.41;77.28
68026;SHT31;54819;48.030;14.710;2023-05-23T00:13:44;15.38;77.07
68026;SHT31;54819;48.030;14.710;2023-05-23T00:16:11;15.35;77.47
68026;SHT31;54819;48.030;14.710;2023-05-23T00:18:38;15.32;77.73
68026;SHT31;54819;48.030;14.710;2023-05-23T00:21:08;15.29;78.07
68026;SHT31;54819;48.030;14.710;2023-05-23T00:23:35;15.28;78.00
68026;SHT31;54819;48.030;14.710;2023-05-23T00:26:02;15.26;78.25
68026;SHT31;54819;48.030;14.710;2023-05-23T00:28:29;15.24;78.46
68026;SHT31;54819;48.030;14.710;2023-05-23T00:30:56;15.23;78.40
68026;SHT31;54819;48.030;14.710;2023-05-23T00:33:22;15.20;78.20
68026;SHT31;54819;48.030;14.710;2023-05-23T00:35:49;15.19;78.21
68026;SHT31;54819;48.030;14.710;2023-05-23T00:38:16;15.17;78.31
68026;SHT31;54819;48.030;14.710;2023-05-23T00:40:44;15.16;78.35
68026;SHT31;54819;48.030;14.710;2023-05-23T00:43:12;15.13;78.51
68026;SHT31;54819;48.030;14.710;2023-05-23T00:45:38;15.11;78.48
68026;SHT31;54819;48.030;14.710;2023-05-23T00:48:06;15.07;78.58
68026;SHT31;54819;48.030;14.710;2023-05-23T00:50:34;15.04;78.56
68026;SHT31;54819;48.030;14.710;2023-05-23T00:53:01;14.99;78.50
68026;SHT31;54819;48.030;14.710;2023-05-23T00:55:30;14.97;78.34
68026;SHT31;54819;48.030;14.710;2023-05-23T00:57:57;14.94;78.36
68026;SHT31;54819;48.030;14.710;2023-05-23T01:00:25;14.90;78.46
68026;SHT31;54819;48.030;14.710;2023-05-23T01:02:54;14.87;78.59
68026;SHT31;54819;48.030;14.710;2023-05-23T01:05:21;14.85;78.60
68026;SHT31;54819;48.030;14.710;2023-05-23T01:07:50;14.82;78.80
68026;SHT31;54819;48.030;14.710;2023-05-23T01:10:18;14.79;78.72
68026;SHT31;54819;48.030;14.710;2023-05-23T01:15:50;14.74;78.85
68026;SHT31;54819;48.030;14.710;2023-05-23T01:18:36;14.72;78.97
68026;SHT31;54819;48.030;14.710;2023-05-23T01:21:10;14.69;79.45
68026;SHT31;54819;48.030;14.710;2023-05-23T01:23:52;14.68;79.33
68026;SHT31;54819;48.030;14.710;2023-05-23T01:27:07;14.64;79.41
68026;SHT31;54819;48.030;14.710;2023-05-23T01:29:52;14.64;79.41
68026;SHT31;54819;48.030;14.710;2023-05-23T01:32:23;14.61;79.16
68026;SHT31;54819;48.030;14.710;2023-05-23T01:34:52;14.59;79.08
68026;SHT31;54819;48.030;14.710;2023-05-23T01:37:20;14.57;79.16
68026;SHT31;54819;48.030;14.710;2023-05-23T01:39:47;14.53;79.26
68026;SHT31;54819;48.030;14.710;2023-05-23T01:42:14;14.52;79.15
68026;SHT31;54819;48.030;14.710;2023-05-23T01:44:41;14.50;79.27
68026;SHT31;54819;48.030;14.710;2023-05-23T01:47:10;14.47;79.05
68026;SHT31;54819;48.030;14.710;2023-05-23T01:49:39;14.44;79.04
68026;SHT31;54819;48.030;14.710;2023-05-23T01:52:10;14.38;79.39
68026;SHT31;54819;48.030;14.710;2023-05-23T01:54:38;14.34;79.42
68026;SHT31;54819;48.030;14.710;2023-05-23T01:57:08;14.31;79.53
68026;SHT31;54819;48.030;14.710;2023-05-23T01:59:36;14.29;79.68
68026;SHT31;54819;48.030;14.710;2023-05-23T02:02:04;14.27;79.82
68026;SHT31;54819;48.030;14.710;2023-05-23T02:04:31;14.25;79.79
68026;SHT31;54819;48.030;14.710;2023-05-23T02:06:58;14.21;79.83
68026;SHT31;54819;48.030;14.710;2023-05-23T02:09:25;14.20;79.77
68026;SHT31;54819;48.030;14.710;2023-05-23T02:11:51;14.18;79.79
68026;SHT31;54819;48.030;14.710;2023-05-23T02:14:19;14.15;79.79
68026;SHT31;54819;48.030;14.710;2023-05-23T02:16:46;14.13;79.94
68026;SHT31;54819;48.030;14.710;2023-05-23T02:19:13;14.13;79.92
68026;SHT31;54819;48.030;14.710;2023-05-23T02:21:40;14.11;79.98
68026;SHT31;54819;48.030;14.710;2023-05-23T02:24:07;14.11;80.02
68026;SHT31;54819;48.030;14.710;2023-05-23T02:26:33;14.09;80.11
68026;SHT31;54819;48.030;14.710;2023-05-23T02:29:00;14.06;80.09
68026;SHT31;54819;48.030;14.710;2023-05-23T02:31:27;14.05;79.95
68026;SHT31;54819;48.030;14.710;2023-05-23T02:33:54;14.02;79.99
68026;SHT31;54819;48.030;14.710;2023-05-23T02:36:21;14.01;80.03
68026;SHT31;54819;48.030;14.710;2023-05-23T02:38:48;14.00;80.11
68026;SHT31;54819;48.030;14.710;2023-05-23T02:41:15;13.98;80.40
68026;SHT31;54819;48.030;14.710;2023-05-23T02:43:46;13.97;80.56
68026;SHT31;54819;48.030;14.710;2023-05-23T02:46:14;13.95;80.50
68026;SHT31;54819;48.030;14.710;2023-05-23T02:48:41;13.93;80.49
68026;SHT31;54819;48.030;14.710;2023-05-23T02:51:07;13.89;80.48
68026;SHT31;54819;48.030;14.710;2023-05-23T02:53:34;13.85;80.43
68026;SHT31;54819;48.030;14.710;2023-05-23T02:56:01;13.83;80.59
68026;SHT31;54819;48.030;14.710;2023-05-23T02:58:27;13.81;80.64
68026;SHT31;54819;48.030;14.710;2023-05-23T03:00:55;13.80;80.72
68026;SHT31;54819;48.030;14.710;2023-05-23T03:03:22;13.78;80.74
68026;SHT31;54819;48.030;14.710;2023-05-23T03:05:49;13.78;80.76
68026;SHT31;54819;48.030;14.710;2023-05-23T03:08:16;13.76;80.75
68026;SHT31;54819;48.030;14.710;2023-05-23T03:10:43;13.75;80.82
68026;SHT31;54819;48.030;14.710;2023-05-23T03:13:10;13.73;80.82
68026;SHT31;54819;48.030;14.710;2023-05-23T03:15:37;13.72;80.98
68026;SHT31;54819;48.030;14.710;2023-05-23T03:18:04;13.73;81.08
68026;SHT31;54819;48.030;14.710;2023-05-23T03:20:31;13.73;81.13
68026;SHT31;54819;48.030;14.710;2023-05-23T03:22:58;13.74;81.16
68026;SHT31;54819;48.030;14.710;2023-05-23T03:25:25;13.76;81.16
68026;SHT31;54819;48.030;14.710;2023-05-23T03:27:52;13.77;81.19
68026;SHT31;54819;48.030;14.710;2023-05-23T03:30:19;13.77;81.29
68026;SHT31;54819;48.030;14.710;2023-05-23T03:32:47;13.77;81.15
68026;SHT31;54819;48.030;14.710;2023-05-23T03:35:15;13.77;81.06
68026;SHT31;54819;48.030;14.710;2023-05-23T03:37:42;13.79;80.86
68026;SHT31;54819;48.030;14.710;2023-05-23T03:40:09;13.82;80.79
68026;SHT31;54819;48.030;14.710;2023-05-23T03:42:37;13.84;80.91
68026;SHT31;54819;48.030;14.710;2023-05-23T03:45:05;13.89;80.88
68026;SHT31;54819;48.030;14.710;2023-05-23T03:47:32;13.95;80.84
68026;SHT31;54819;48.030;14.710;2023-05-23T03:49:59;13.98;81.39
68026;SHT31;54819;48.030;14.710;2023-05-23T03:52:26;14.04;80.76
68026;SHT31;54819;48.030;14.710;2023-05-23T03:54:52;14.12;80.61
68026;SHT31;54819;48.030;14.710;2023-05-23T03:57:19;14.23;80.47
68026;SHT31;54819;48.030;14.710;2023-05-23T03:59:46;14.34;80.34
68026;SHT31;54819;48.030;14.710;2023-05-23T04:02:13;14.46;80.26
68026;SHT31;54819;48.030;14.710;2023-05-23T04:04:40;14.58;80.11
68026;SHT31;54819;48.030;14.710;2023-05-23T04:07:08;14.67;79.94
68026;SHT31;54819;48.030;14.710;2023-05-23T04:09:37;14.73;79.90
68026;SHT31;54819;48.030;14.710;2023-05-23T04:12:05;14.84;79.73
68026;SHT31;54819;48.030;14.710;2023-05-23T04:14:35;14.96;79.63
68026;SHT31;54819;48.030;14.710;2023-05-23T04:17:02;15.06;79.48
68026;SHT31;54819;48.030;14.710;2023-05-23T04:19:29;15.19;79.27
68026;SHT31;54819;48.030;14.710;2023-05-23T04:21:56;15.30;79.12
68026;SHT31;54819;48.030;14.710;2023-05-23T04:24:23;15.43;78.94
68026;SHT31;54819;48.030;14.710;2023-05-23T04:26:49;15.56;78.84
68026;SHT31;54819;48.030;14.710;2023-05-23T04:29:16;15.64;78.66
68026;SHT31;54819;48.030;14.710;2023-05-23T04:31:43;15.70;78.45
68026;SHT31;54819;48.030;14.710;2023-05-23T04:34:11;15.80;78.24
68026;SHT31;54819;48.030;14.710;2023-05-23T04:36:38;15.86;78.13
68026;SHT31;54819;48.030;14.710;2023-05-23T04:39:06;15.86;78.01
68026;SHT31;54819;48.030;14.710;2023-05-23T04:41:38;15.91;78.06
68026;SHT31;54819;48.030;14.710;2023-05-23T04:44:38;16.01;78.12
68026;SHT31;54819;48.030;14.710;2023-05-23T04:47:19;16.14;78.10
68026;SHT31;54819;48.030;14.710;2023-05-23T04:50:06;16.40;77.76
68026;SHT31;54819;48.030;14.710;2023-05-23T04:52:34;16.87;77.22
68026;SHT31;54819;48.030;14.710;2023-05-23T04:55:01;17.39;76.48
68026;SHT31;54819;48.030;14.710;2023-05-23T04:57:28;17.94;75.89
68026;SHT31;54819;48.030;14.710;2023-05-23T04:59:55;18.46;75.18
68026;SHT31;54819;48.030;14.710;2023-05-23T05:02:24;19.01;74.59
68026;SHT31;54819;48.030;14.710;2023-05-23T05:04:52;19.60;73.39
68026;SHT31;54819;48.030;14.710;2023-05-23T05:07:19;20.14;72.05
68026;SHT31;54819;48.030;14.710;2023-05-23T05:09:46;20.67;71.09
68026;SHT31;54819;48.030;14.710;2023-05-23T05:12:13;21.09;70.14
68026;SHT31;54819;48.030;14.710;2023-05-23T05:14:39;21.44;69.04
68026;SHT31;54819;48.030;14.710;2023-05-23T05:17:07;21.50;67.59
68026;SHT31;54819;48.030;14.710;2023-05-23T05:19:46;21.38;66.88
68026;SHT31;54819;48.030;14.710;2023-05-23T05:22:12;21.17;66.27
68026;SHT31;54819;48.030;14.710;2023-05-23T05:24:40;20.99;66.34
68026;SHT31;54819;48.030;14.710;2023-05-23T05:27:07;20.86;66.10
68026;SHT31;54819;48.030;14.710;2023-05-23T05:29:35;20.72;66.16
68026;SHT31;54819;48.030;14.710;2023-05-23T05:32:02;20.54;65.96
68026;SHT31;54819;48.030;14.710;2023-05-23T05:34:29;20.32;66.57
68026;SHT31;54819;48.030;14.710;2023-05-23T05:36:56;19.97;66.41
68026;SHT31;54819;48.030;14.710;2023-05-23T05:39:24;19.78;67.23
68026;SHT31;54819;48.030;14.710;2023-05-23T05:41:52;19.66;67.80
68026;SHT31;54819;48.030;14.710;2023-05-23T05:44:18;19.67;67.78
68026;SHT31;54819;48.030;14.710;2023-05-23T05:46:45;19.77;67.77
68026;SHT31;54819;48.030;14.710;2023-05-23T05:49:13;19.82;67.89
68026;SHT31;54819;48.030;14.710;2023-05-23T05:51:40;19.88;68.14
68026;SHT31;54819;48.030;14.710;2023-05-23T05:54:07;19.88;68.53
68026;SHT31;54819;48.030;14.710;2023-05-23T05:56:34;20.03;68.56
68026;SHT31;54819;48.030;14.710;2023-05-23T05:59:01;20.19;68.82
68026;SHT31;54819;48.030;14.710;2023-05-23T06:01:27;20.23;68.73
68026;SHT31;54819;48.030;14.710;2023-05-23T06:03:54;20.26;68.83
68026;SHT31;54819;48.030;14.710;2023-05-23T06:06:22;20.35;68.87
68026;SHT31;54819;48.030;14.710;2023-05-23T06:08:49;20.41;68.39
68026;SHT31;54819;48.030;14.710;2023-05-23T06:11:16;20.55;68.17
68026;SHT31;54819;48.030;14.710;2023-05-23T06:13:43;20.73;66.93
68026;SHT31;54819;48.030;14.710;2023-05-23T06:16:10;20.89;66.54
68026;SHT31;54819;48.030;14.710;2023-05-23T06:18:37;21.00;66.40
68026;SHT31;54819;48.030;14.710;2023-05-23T06:21:04;21.15;66.33
68026;SHT31;54819;48.030;14.710;2023-05-23T06:23:31;21.41;65.43
68026;SHT31;54819;48.030;14.710;2023-05-23T06:25:58;21.68;64.96
68026;SHT31;54819;48.030;14.710;2023-05-23T06:28:25;21.89;62.67
68026;SHT31;54819;48.030;14.710;2023-05-23T06:30:52;21.98;63.36
68026;SHT31;54819;48.030;14.710;2023-05-23T06:33:18;22.01;62.87
68026;SHT31;54819;48.030;14.710;2023-05-23T06:35:47;22.13;63.19
68026;SHT31;54819;48.030;14.710;2023-05-23T06:38:14;22.26;62.87
68026;SHT31;54819;48.030;14.710;2023-05-23T06:40:43;22.43;62.32
68026;SHT31;54819;48.030;14.710;2023-05-23T06:43:10;22.66;62.37
68026;SHT31;54819;48.030;14.710;2023-05-23T06:45:44;22.95;62.09
68026;SHT31;54819;48.030;14.710;2023-05-23T06:48:15;23.15;60.63
68026;SHT31;54819;48.030;14.710;2023-05-23T06:50:43;23.26;60.35
68026;SHT31;54819;48.030;14.710;2023-05-23T06:53:11;23.29;60.25
68026;SHT31;54819;48.030;14.710;2023-05-23T06:55:39;23.33;60.49
68026;SHT31;54819;48.030;14.710;2023-05-23T06:58:06;23.34;60.13
68026;SHT31;54819;48.030;14.710;2023-05-23T07:00:34;23.41;60.01
68026;SHT31;54819;48.030;14.710;2023-05-23T07:03:07;23.63;59.82
68026;SHT31;54819;48.030;14.710;2023-05-23T07:05:33;23.86;58.61
68026;SHT31;54819;48.030;14.710;2023-05-23T07:08:07;23.94;57.73
68026;SHT31;54819;48.030;14.710;2023-05-23T07:10:36;23.93;57.37
68026;SHT31;54819;48.030;14.710;2023-05-23T07:13:14;23.92;57.08
68026;SHT31;54819;48.030;14.710;2023-05-23T07:15:42;23.82;57.05
68026;SHT31;54819;48.030;14.710;2023-05-23T07:18:11;23.77;57.28
68026;SHT31;54819;48.030;14.710;2023-05-23T07:20:38;23.64;57.01
68026;SHT31;54819;48.030;14.710;2023-05-23T07:23:11;23.56;57.55
68026;SHT31;54819;48.030;14.710;2023-05-23T07:25:38;23.58;58.20
68026;SHT31;54819;48.030;14.710;2023-05-23T07:28:24;23.53;57.87
68026;SHT31;54819;48.030;14.710;2023-05-23T07:30:52;23.64;58.20
68026;SHT31;54819;48.030;14.710;2023-05-23T07:33:20;23.56;57.59
68026;SHT31;54819;48.030;14.710;2023-05-23T07:35:47;23.56;58.08
68026;SHT31;54819;48.030;14.710;2023-05-23T07:38:14;23.64;58.01
68026;SHT31;54819;48.030;14.710;2023-05-23T07:40:41;23.82;58.31
68026;SHT31;54819;48.030;14.710;2023-05-23T07:43:09;23.95;57.89
68026;SHT31;54819;48.030;14.710;2023-05-23T07:45:36;23.90;57.47
68026;SHT31;54819;48.030;14.710;2023-05-23T07:48:03;23.80;58.13
68026;SHT31;54819;48.030;14.710;2023-05-23T07:50:30;23.61;58.29
68026;SHT31;54819;48.030;14.710;2023-05-23T07:52:57;23.48;58.55
68026;SHT31;54819;48.030;14.710;2023-05-23T07:55:27;23.51;58.73
68026;SHT31;54819;48.030;14.710;2023-05-23T07:57:53;23.55;58.88
68026;SHT31;54819;48.030;14.710;2023-05-23T08:00:22;23.55;59.04
68026;SHT31;54819;48.030;14.710;2023-05-23T08:02:51;23.70;59.49
68026;SHT31;54819;48.030;14.710;2023-05-23T08:05:20;23.88;59.49
68026;SHT31;54819;48.030;14.710;2023-05-23T08:07:50;24.00;59.11
68026;SHT31;54819;48.030;14.710;2023-05-23T08:10:19;24.10;58.62
68026;SHT31;54819;48.030;14.710;2023-05-23T08:12:46;24.26;58.34
68026;SHT31;54819;48.030;14.710;2023-05-23T08:15:14;24.48;58.43
68026;SHT31;54819;48.030;14.710;2023-05-23T08:17:45;24.66;58.09
68026;SHT31;54819;48.030;14.710;2023-05-23T08:20:12;24.76;57.59
68026;SHT31;54819;48.030;14.710;2023-05-23T08:22:40;24.76;57.85
68026;SHT31;54819;48.030;14.710;2023-05-23T08:25:07;24.80;58.32
68026;SHT31;54819;48.030;14.710;2023-05-23T08:27:36;24.73;57.59
68026;SHT31;54819;48.030;14.710;2023-05-23T08:30:10;24.46;57.15
68026;SHT31;54819;48.030;14.710;2023-05-23T08:32:38;24.16;58.44
68026;SHT31;54819;48.030;14.710;2023-05-23T08:35:05;23.98;59.20
68026;SHT31;54819;48.030;14.710;2023-05-23T08:37:32;23.71;60.13
68026;SHT31;54819;48.030;14.710;2023-05-23T08:39:58;23.43;61.65
68026;SHT31;54819;48.030;14.710;2023-05-23T08:42:55;23.02;62.18
68026;SHT31;54819;48.030;14.710;2023-05-23T08:45:22;22.67;61.74
68026;SHT31;54819;48.030;14.710;2023-05-23T08:47:50;22.30;62.20
68026;SHT31;54819;48.030;14.710;2023-05-23T08:50:20;22.13;63.11
68026;SHT31;54819;48.030;14.710;2023-05-23T08:55:27;21.69;64.73
68026;SHT31;54819;48.030;14.710;2023-05-23T08:57:56;21.50;65.11
68026;SHT31;54819;48.030;14.710;2023-05-23T09:00:35;21.22;66.05
68026;SHT31;54819;48.030;14.710;2023-05-23T09:03:03;21.09;66.33
68026;SHT31;54819;48.030;14.710;2023-05-23T09:05:48;20.88;66.89
68026;SHT31;54819;48.030;14.710;2023-05-23T09:08:16;20.64;68.55
68026;SHT31;54819;48.030;14.710;2023-05-23T09:10:47;20.54;68.91
68026;SHT31;54819;48.030;14.710;2023-05-23T09:13:18;20.54;68.94
68026;SHT31;54819;48.030;14.710;2023-05-23T09:15:56;20.68;69.07
68026;SHT31;54819;48.030;14.710;2023-05-23T09:18:47;20.88;69.09
68026;SHT31;54819;48.030;14.710;2023-05-23T09:21:15;21.02;68.00
68026;SHT31;54819;48.030;14.710;2023-05-23T09:23:51;21.12;67.01
68026;SHT31;54819;48.030;14.710;2023-05-23T09:26:18;21.24;66.62
68026;SHT31;54819;48.030;14.710;2023-05-23T09:28:45;21.33;66.32
68026;SHT31;54819;48.030;14.710;2023-05-23T09:31:13;21.45;66.38
68026;SHT31;54819;48.030;14.710;2023-05-23T09:33:42;21.59;66.36
68026;SHT31;54819;48.030;14.710;2023-05-23T09:36:21;21.74;66.63
68026;SHT31;54819;48.030;14.710;2023-05-23T09:38:48;21.91;66.64
68026;SHT31;54819;48.030;14.710;2023-05-23T09:41:15;22.11;66.47
68026;SHT31;54819;48.030;14.710;2023-05-23T09:43:49;22.30;65.88
68026;SHT31;54819;48.030;14.710;2023-05-23T09:46:20;22.47;64.97
68026;SHT31;54819;48.030;14.710;2023-05-23T09:48:48;22.64;64.69
68026;SHT31;54819;48.030;14.710;2023-05-23T09:51:18;22.82;64.31
68026;SHT31;54819;48.030;14.710;2023-05-23T09:53:48;22.97;63.81
68026;SHT31;54819;48.030;14.710;2023-05-23T09:56:15;23.15;64.03
68026;SHT31;54819;48.030;14.710;2023-05-23T09:58:45;23.34;64.14
68026;SHT31;54819;48.030;14.710;2023-05-23T10:01:14;23.56;63.81
68026;SHT31;54819;48.030;14.710;2023-05-23T10:06:27;24.09;63.37
68026;SHT31;54819;48.030;14.710;2023-05-23T10:09:16;24.41;62.80
68026;SHT31;54819;48.030;14.710;2023-05-23T10:14:57;24.95;62.66
68026;SHT31;54819;48.030;14.710;2023-05-23T10:20:24;25.16;62.39
68026;SHT31;54819;48.030;14.710;2023-05-23T10:22:59;25.20;62.44
68026;SHT31;54819;48.030;14.710;2023-05-23T10:25:28;25.24;63.01
68026;SHT31;54819;48.030;14.710;2023-05-23T10:27:55;25.27;63.08
68026;SHT31;54819;48.030;14.710;2023-05-23T10:30:28;25.25;62.59
68026;SHT31;54819;48.030;14.710;2023-05-23T10:32:55;25.24;62.99
68026;SHT31;54819;48.030;14.710;2023-05-23T10:35:29;25.24;61.49
68026;SHT31;54819;48.030;14.710;2023-05-23T10:46:13;25.44;60.06
68026;SHT31;54819;48.030;14.710;2023-05-23T10:48:41;25.62;59.68
68026;SHT31;54819;48.030;14.710;2023-05-23T10:51:10;25.77;59.11
68026;SHT31;54819;48.030;14.710;2023-05-23T10:53:41;25.85;58.75
68026;SHT31;54819;48.030;14.710;2023-05-23T10:56:18;25.86;57.93
68026;SHT31;54819;48.030;14.710;2023-05-23T10:58:52;25.91;58.56
68026;SHT31;54819;48.030;14.710;2023-05-23T11:01:21;26.05;58.28
68026;SHT31;54819;48.030;14.710;2023-05-23T11:09:12;25.88;57.97
68026;SHT31;54819;48.030;14.710;2023-05-23T11:14:33;25.56;58.30
68026;SHT31;54819;48.030;14.710;2023-05-23T11:17:15;25.34;58.90
68026;SHT31;54819;48.030;14.710;2023-05-23T11:20:03;25.22;59.21
68026;SHT31;54819;48.030;14.710;2023-05-23T11:22:33;25.16;59.46
68026;SHT31;54819;48.030;14.710;2023-05-23T11:25:05;25.32;58.93
68026;SHT31;54819;48.030;14.710;2023-05-23T11:27:36;25.50;57.70
68026;SHT31;54819;48.030;14.710;2023-05-23T11:30:12;25.75;57.79
68026;SHT31;54819;48.030;14.710;2023-05-23T11:32:42;25.99;57.12
68026;SHT31;54819;48.030;14.710;2023-05-23T11:35:20;26.15;56.99
68026;SHT31;54819;48.030;14.710;2023-05-23T11:37:47;26.12;57.06
68026;SHT31;54819;48.030;14.710;2023-05-23T11:40:30;26.01;56.84
68026;SHT31;54819;48.030;14.710;2023-05-23T11:43:05;25.84;56.72
68026;SHT31;54819;48.030;14.710;2023-05-23T11:45:35;25.70;56.84
68026;SHT31;54819;48.030;14.710;2023-05-23T11:48:08;25.67;55.72
68026;SHT31;54819;48.030;14.710;2023-05-23T11:50:48;25.66;54.31
68026;SHT31;54819;48.030;14.710;2023-05-23T11:53:20;25.70;53.71
68026;SHT31;54819;48.030;14.710;2023-05-23T11:55:52;25.74;53.41
68026;SHT31;54819;48.030;14.710;2023-05-23T11:58:28;25.78;54.03
68026;SHT31;54819;48.030;14.710;2023-05-23T12:00:57;25.81;54.48
68026;SHT31;54819;48.030;14.710;2023-05-23T12:03:44;25.89;55.14
68026;SHT31;54819;48.030;14.710;2023-05-23T12:06:20;25.94;54.25
68026;SHT31;54819;48.030;14.710;2023-05-23T12:08:53;25.99;54.43
68026;SHT31;54819;48.030;14.710;2023-05-23T12:11:19;26.05;54.68
68026;SHT31;54819;48.030;14.710;2023-05-23T12:13:48;26.10;55.17
68026;SHT31;54819;48.030;14.710;2023-05-23T12:16:18;26.22;55.65
68026;SHT31;54819;48.030;14.710;2023-05-23T12:18:46;26.27;55.45
68026;SHT31;54819;48.030;14.710;2023-05-23T12:21:13;26.32;55.03
68026;SHT31;54819;48.030;14.710;2023-05-23T12:23:40;26.42;55.08
68026;SHT31;54819;48.030;14.710;2023-05-23T12:26:07;26.58;55.22
68026;SHT31;54819;48.030;14.710;2023-05-23T12:28:39;26.81;54.80
68026;SHT31;54819;48.030;14.710;2023-05-23T12:31:20;27.06;54.64
68026;SHT31;54819;48.030;14.710;2023-05-23T12:33:48;27.26;53.67
68026;SHT31;54819;48.030;14.710;2023-05-23T12:36:23;27.38;52.61
68026;SHT31;54819;48.030;14.710;2023-05-23T12:38:54;27.34;52.58
68026;SHT31;54819;48.030;14.710;2023-05-23T12:41:29;27.39;50.91
68026;SHT31;54819;48.030;14.710;2023-05-23T12:43:58;27.46;51.64
68026;SHT31;54819;48.030;14.710;2023-05-23T12:46:26;27.56;51.36
68026;SHT31;54819;48.030;14.710;2023-05-23T12:48:53;27.47;50.63
68026;SHT31;54819;48.030;14.710;2023-05-23T12:51:20;27.13;50.42
68026;SHT31;54819;48.030;14.710;2023-05-23T12:53:47;26.89;51.02
68026;SHT31;54819;48.030;14.710;2023-05-23T12:56:14;26.28;49.77
68026;SHT31;54819;48.030;14.710;2023-05-23T12:58:40;25.86;50.36
68026;SHT31;54819;48.030;14.710;2023-05-23T13:01:07;25.45;50.56
68026;SHT31;54819;48.030;14.710;2023-05-23T13:03:34;25.17;51.28
68026;SHT31;54819;48.030;14.710;2023-05-23T13:06:01;24.72;52.72
68026;SHT31;54819;48.030;14.710;2023-05-23T13:08:28;24.28;54.25
68026;SHT31;54819;48.030;14.710;2023-05-23T13:10:55;23.96;55.64
68026;SHT31;54819;48.030;14.710;2023-05-23T13:13:22;23.72;57.26
68026;SHT31;54819;48.030;14.710;2023-05-23T13:15:50;23.46;58.25
68026;SHT31;54819;48.030;14.710;2023-05-23T13:18:17;23.23;59.16
68026;SHT31;54819;48.030;14.710;2023-05-23T13:20:44;23.08;59.82
68026;SHT31;54819;48.030;14.710;2023-05-23T13:23:12;22.88;60.51
68026;SHT31;54819;48.030;14.710;2023-05-23T13:25:39;22.61;61.19
68026;SHT31;54819;48.030;14.710;2023-05-23T13:28:06;22.36;62.67
68026;SHT31;54819;48.030;14.710;2023-05-23T13:30:33;22.09;64.11
68026;SHT31;54819;48.030;14.710;2023-05-23T13:33:00;21.95;64.99
68026;SHT31;54819;48.030;14.710;2023-05-23T13:35:28;21.85;66.22
68026;SHT31;54819;48.030;14.710;2023-05-23T13:37:54;21.69;67.02
68026;SHT31;54819;48.030;14.710;2023-05-23T13:40:21;21.57;67.62
68026;SHT31;54819;48.030;14.710;2023-05-23T13:42:49;21.44;68.82
68026;SHT31;54819;48.030;14.710;2023-05-23T13:45:17;21.33;69.13
68026;SHT31;54819;48.030;14.710;2023-05-23T13:47:45;21.25;69.46
68026;SHT31;54819;48.030;14.710;2023-05-23T13:50:12;21.20;69.82
68026;SHT31;54819;48.030;14.710;2023-05-23T13:52:40;21.16;70.15
68026;SHT31;54819;48.030;14.710;2023-05-23T13:55:11;21.09;70.85
68026;SHT31;54819;48.030;14.710;2023-05-23T13:57:38;21.03;71.26
68026;SHT31;54819;48.030;14.710;2023-05-23T14:00:04;21.01;71.48
68026;SHT31;54819;48.030;14.710;2023-05-23T14:02:34;20.99;71.18
68026;SHT31;54819;48.030;14.710;2023-05-23T14:05:01;20.98;71.30
68026;SHT31;54819;48.030;14.710;2023-05-23T14:07:29;21.06;71.31
68026;SHT31;54819;48.030;14.710;2023-05-23T14:09:56;21.18;71.11
68026;SHT31;54819;48.030;14.710;2023-05-23T14:12:26;21.31;70.89
68026;SHT31;54819;48.030;14.710;2023-05-23T14:14:52;21.27;71.36
68026;SHT31;54819;48.030;14.710;2023-05-23T14:17:19;21.13;72.06
68026;SHT31;54819;48.030;14.710;2023-05-23T14:19:46;21.21;71.96
68026;SHT31;54819;48.030;14.710;2023-05-23T14:22:13;21.29;71.63
68026;SHT31;54819;48.030;14.710;2023-05-23T14:24:40;21.27;71.50
68026;SHT31;54819;48.030;14.710;2023-05-23T14:27:07;21.22;71.21
68026;SHT31;54819;48.030;14.710;2023-05-23T14:29:37;21.33;71.35
68026;SHT31;54819;48.030;14.710;2023-05-23T14:32:04;21.36;71.10
68026;SHT31;54819;48.030;14.710;2023-05-23T14:34:32;21.18;71.34
68026;SHT31;54819;48.030;14.710;2023-05-23T14:36:59;21.03;71.46
68026;SHT31;54819;48.030;14.710;2023-05-23T14:39:26;20.99;71.46
68026;SHT31;54819;48.030;14.710;2023-05-23T14:41:54;20.91;71.63
68026;SHT31;54819;48.030;14.710;2023-05-23T14:44:21;20.88;71.58
68026;SHT31;54819;48.030;14.710;2023-05-23T14:46:48;20.90;71.52
68026;SHT31;54819;48.030;14.710;2023-05-23T14:49:18;20.91;71.38
68026;SHT31;54819;48.030;14.710;2023-05-23T14:51:45;20.83;71.18
68026;SHT31;54819;48.030;14.710;2023-05-23T14:54:17;20.80;71.67
68026;SHT31;54819;48.030;14.710;2023-05-23T14:56:44;20.89;71.96
68026;SHT31;54819;48.030;14.710;2023-05-23T14:59:11;21.05;72.19
68026;SHT31;54819;48.030;14.710;2023-05-23T15:01:38;21.18;72.00
68026;SHT31;54819;48.030;14.710;2023-05-23T15:04:06;21.24;71.90
68026;SHT31;54819;48.030;14.710;2023-05-23T15:06:37;21.33;71.56
68026;SHT31;54819;48.030;14.710;2023-05-23T15:09:05;21.43;71.45
68026;SHT31;54819;48.030;14.710;2023-05-23T15:11:32;21.49;71.39
68026;SHT31;54819;48.030;14.710;2023-05-23T15:14:00;21.46;71.25
68026;SHT31;54819;48.030;14.710;2023-05-23T15:16:27;21.37;71.10
68026;SHT31;54819;48.030;14.710;2023-05-23T15:18:58;21.26;71.15
68026;SHT31;54819;48.030;14.710;2023-05-23T15:21:25;21.15;71.82
68026;SHT31;54819;48.030;14.710;2023-05-23T15:23:52;21.02;72.19
68026;SHT31;54819;48.030;14.710;2023-05-23T15:26:19;20.92;72.42
68026;SHT31;54819;48.030;14.710;2023-05-23T15:28:46;20.88;72.91
68026;SHT31;54819;48.030;14.710;2023-05-23T15:31:13;20.82;72.90
68026;SHT31;54819;48.030;14.710;2023-05-23T15:33:39;20.75;73.38
68026;SHT31;54819;48.030;14.710;2023-05-23T15:36:06;20.66;73.45
68026;SHT31;54819;48.030;14.710;2023-05-23T15:38:33;20.59;73.70
68026;SHT31;54819;48.030;14.710;2023-05-23T15:41:00;20.50;74.00
68026;SHT31;54819;48.030;14.710;2023-05-23T15:43:28;20.44;74.42
68026;SHT31;54819;48.030;14.710;2023-05-23T15:45:55;20.44;74.62
68026;SHT31;54819;48.030;14.710;2023-05-23T15:48:22;20.46;74.62
68026;SHT31;54819;48.030;14.710;2023-05-23T15:50:48;20.52;74.56
68026;SHT31;54819;48.030;14.710;2023-05-23T15:53:15;20.60;74.30
68026;SHT31;54819;48.030;14.710;2023-05-23T15:55:42;20.68;74.32
68026;SHT31;54819;48.030;14.710;2023-05-23T15:58:09;20.69;74.48